Time;durP1;ratioP1;P1;durP2;ratioP2;P2;SDS_P1;SDS_P2;PMS_P1;PMS_P2;Temp;Humidity;BMP_temperature;BMP_pressure;BME280_temperature;BME280_humidity;BME280_pressure;Samples;Min_cycle;Max_cycle;Signal;HPM_P1;HPM_P2
2022/08/12 00:48:57;;;;;;;2.42;1.50;;;19.20;54.00;;;;;;6248060;28;20087;-74
2022/08/12 00:52:08;;;;;;;2.45;1.08;;;19.10;54.20;;;;;;6249148;28;20064;-75
2022/08/12 00:55:10;;;;;;;2.67;1.50;;;19.10;54.00;;;;;;6248322;28;20049;-74
2022/08/12 00:58:16;;;;;;;2.92;1.40;;;19.10;54.30;;;;;;6247891;28;20493;-74
2022/08/12 01:01:20;;;;;;;3.15;1.55;;;19.10;54.30;;;;;;6248504;28;20045;-74
2022/08/12 01:14:42;;;;;;;2.58;1.35;;;19.20;53.80;;;;;;6196235;28;20125;-74
2022/08/12 01:17:45;;;;;;;2.15;1.20;;;19.30;53.50;;;;;;6194759;28;20053;-74
2022/08/12 01:21:06;;;;;;;2.75;1.02;;;19.40;53.30;;;;;;6221954;28;20046;-75
2022/08/12 01:24:17;;;;;;;3.13;1.33;;;19.40;53.10;;;;;;6223429;28;20068;-75
2022/08/12 01:27:22;;;;;;;4.57;1.30;;;19.40;52.90;;;;;;6222837;28;20049;-76
2022/08/12 01:30:25;;;;;;;2.03;1.27;;;19.50;53.00;;;;;;6222950;28;20498;-75
2022/08/12 01:33:34;;;;;;;2.53;0.98;;;19.50;53.00;;;;;;6223061;28;20046;-75
2022/08/12 01:36:42;;;;;;;3.60;1.50;;;19.50;53.10;;;;;;6222957;28;20058;-77
2022/08/12 01:39:51;;;;;;;3.38;1.10;;;19.50;53.00;;;;;;6223220;28;20046;-77
2022/08/12 01:42:57;;;;;;;2.25;1.05;;;19.50;53.70;;;;;;6222369;28;20054;-77
2022/08/12 01:46:07;;;;;;;6.68;1.30;;;19.40;53.10;;;;;;6222689;28;20096;-75
2022/08/12 01:49:32;;;;;;;2.95;1.02;;;19.30;53.50;;;;;;6222310;28;20451;-75
2022/08/12 01:52:42;;;;;;;4.40;1.25;;;19.30;54.00;;;;;;6222788;28;20054;-74
2022/08/12 01:55:47;;;;;;;6.22;1.35;;;19.20;54.30;;;;;;6222871;28;20072;-75
2022/08/12 02:02:17;;;;;;;2.65;1.13;;;19.00;54.60;;;;;;6222585;28;20078;-75
2022/08/12 02:12:39;;;;;;;2.22;1.20;;;18.90;55.20;;;;;;6222491;28;20073;-75
2022/08/12 02:15:48;;;;;;;0.85;0.65;;;18.80;55.00;;;;;;6247154;28;20045;-75
2022/08/12 02:19:04;;;;;;;2.63;1.10;;;18.80;55.20;;;;;;6247706;28;20523;-76
2022/08/12 02:22:22;;;;;;;5.15;1.40;;;18.70;55.60;;;;;;6246396;28;20052;-74
2022/08/12 02:25:32;;;;;;;2.08;1.10;;;18.70;55.60;;;;;;6246665;28;20055;-74
2022/08/12 02:28:36;;;;;;;1.70;0.95;;;18.60;55.90;;;;;;6246244;28;20608;-75
2022/08/12 02:31:42;;;;;;;2.00;1.00;;;18.60;56.30;;;;;;6247265;28;20049;-75
2022/08/12 02:34:45;;;;;;;1.83;1.05;;;18.60;57.00;;;;;;6246169;28;20049;-74
2022/08/12 02:37:48;;;;;;;3.00;1.25;;;18.50;56.70;;;;;;6246181;28;20095;-75
2022/08/12 02:40:53;;;;;;;2.88;1.60;;;18.50;56.60;;;;;;6246380;28;20052;-74
2022/08/12 02:44:00;;;;;;;4.20;1.17;;;18.50;56.70;;;;;;6246317;28;20076;-76
2022/08/12 02:47:05;;;;;;;3.60;0.93;;;18.60;56.40;;;;;;6251287;28;20095;-76
2022/08/12 02:50:09;;;;;;;2.05;1.00;;;18.60;56.70;;;;;;6250952;28;20103;-76
2022/08/12 02:53:12;;;;;;;2.13;1.15;;;18.60;56.50;;;;;;6251103;28;20548;-75
2022/08/12 02:56:16;;;;;;;2.20;0.88;;;18.70;56.40;;;;;;6251400;28;20061;-75
2022/08/12 02:59:21;;;;;;;3.42;1.20;;;18.70;56.10;;;;;;6250376;28;20398;-76
2022/08/12 03:02:27;;;;;;;8.88;1.02;;;18.70;56.00;;;;;;6250638;28;20045;-76
2022/08/12 03:05:32;;;;;;;3.63;1.40;;;18.70;55.90;;;;;;6250538;28;20480;-76
2022/08/12 03:08:42;;;;;;;2.55;1.27;;;18.70;56.10;;;;;;6250441;28;20049;-75
2022/08/12 03:11:58;;;;;;;2.15;0.88;;;18.70;56.20;;;;;;6250653;28;20060;-75
2022/08/12 03:15:04;;;;;;;7.90;1.30;;;18.70;56.30;;;;;;6250595;28;20053;-76
2022/08/12 03:18:19;;;;;;;3.60;1.30;;;18.70;56.40;;;;;;6251761;28;20049;-76
2022/08/12 03:21:20;;;;;;;8.23;1.17;;;18.70;56.40;;;;;;6266981;28;20052;-76
2022/08/12 03:24:26;;;;;;;4.28;1.40;;;18.70;57.00;;;;;;6275603;28;20045;-76
2022/08/12 03:27:30;;;;;;;2.00;1.25;;;18.70;56.10;;;;;;6274625;28;20507;-76
2022/08/12 03:30:33;;;;;;;2.55;1.15;;;18.70;56.00;;;;;;6274526;28;20527;-76
2022/08/12 03:33:37;;;;;;;2.05;1.45;;;18.80;56.10;;;;;;6274807;28;20052;-76
2022/08/12 03:36:40;;;;;;;3.83;0.90;;;18.80;56.00;;;;;;6274444;28;20064;-76
2022/08/12 03:39:44;;;;;;;2.10;0.80;;;18.90;55.80;;;;;;6274779;28;20056;-75
2022/08/12 04:02:59;;;;;;;6.82;1.30;;;19.30;55.30;;;;;;6273942;28;20045;-76
2022/08/12 04:06:02;;;;;;;4.43;1.80;;;19.30;54.90;;;;;;6273806;28;20049;-76
2022/08/12 04:09:05;;;;;;;9.05;1.58;;;19.30;55.20;;;;;;6273611;28;20064;-76
2022/08/12 04:15:31;;;;;;;7.15;2.22;;;19.30;55.20;;;;;;6273649;28;20041;-76
2022/08/12 04:18:33;;;;;;;3.30;1.75;;;19.40;55.10;;;;;;6273455;28;20650;-76
2022/08/12 04:21:38;;;;;;;1.95;1.05;;;19.40;55.00;;;;;;6261512;28;20048;-75
2022/08/12 04:24:41;;;;;;;7.05;1.60;;;19.40;55.00;;;;;;6252985;28;20051;-75
2022/08/12 04:27:44;;;;;;;2.22;0.95;;;19.40;55.40;;;;;;6249295;28;20060;-77
2022/08/12 04:30:46;;;;;;;4.80;1.55;;;19.40;55.20;;;;;;6248696;28;20429;-75
2022/08/12 04:33:48;;;;;;;11.18;1.77;;;19.50;54.70;;;;;;6285439;28;20055;-75
2022/08/12 04:36:52;;;;;;;9.70;1.27;;;19.50;54.50;;;;;;6298158;28;20044;-76
2022/08/12 04:39:54;;;;;;;3.72;1.45;;;19.60;54.40;;;;;;6298166;28;20413;-75
2022/08/12 04:42:57;;;;;;;3.22;1.70;;;19.60;54.40;;;;;;6297777;28;20044;-75
2022/08/12 04:45:59;;;;;;;5.22;1.30;;;19.70;54.30;;;;;;6297901;28;20106;-75
2022/08/12 04:49:01;;;;;;;2.95;1.52;;;19.70;54.10;;;;;;6297559;28;20063;-74
2022/08/12 04:52:05;;;;;;;10.18;4.38;;;19.70;54.10;;;;;;6287379;28;20045;-75
2022/08/12 04:55:09;;;;;;;8.50;1.35;;;19.70;54.10;;;;;;6272677;28;20052;-76
2022/08/12 04:58:11;;;;;;;2.05;1.00;;;19.80;53.90;;;;;;6272722;28;20049;-75
2022/08/12 05:01:13;;;;;;;8.63;1.85;;;19.90;53.60;;;;;;6274605;28;20053;-77
2022/08/12 05:04:15;;;;;;;2.35;1.35;;;20.00;53.50;;;;;;6274871;28;20053;-77
2022/08/12 05:07:19;;;;;;;4.75;1.20;;;20.20;53.20;;;;;;6273478;28;20063;-77
2022/08/12 05:10:21;;;;;;;5.82;1.55;;;20.30;52.90;;;;;;6274401;28;20048;-77
2022/08/12 05:13:26;;;;;;;4.47;1.33;;;20.50;52.60;;;;;;6274133;28;20048;-77
2022/08/12 05:16:29;;;;;;;2.45;1.27;;;20.60;52.20;;;;;;6275570;28;20053;-77
2022/08/12 05:19:31;;;;;;;3.22;1.02;;;20.80;52.00;;;;;;6274062;28;20049;-77
2022/08/12 05:22:34;;;;;;;2.63;1.15;;;21.00;51.60;;;;;;6258367;28;20064;-77
2022/08/12 05:25:36;;;;;;;2.53;1.40;;;21.20;51.00;;;;;;6257433;28;20044;-77
2022/08/12 05:28:38;;;;;;;2.78;1.25;;;21.40;50.70;;;;;;6274623;28;20088;-76
2022/08/12 05:31:42;;;;;;;7.40;1.15;;;21.70;50.20;;;;;;6272113;28;20127;-76
2022/08/12 05:34:44;;;;;;;4.03;1.02;;;21.90;49.60;;;;;;6271765;28;20051;-76
2022/08/12 05:37:47;;;;;;;4.15;1.30;;;22.20;49.10;;;;;;6271512;28;20431;-76
2022/08/12 05:40:49;;;;;;;3.97;1.55;;;22.30;48.50;;;;;;6271614;28;20037;-76
2022/08/12 05:43:53;;;;;;;4.55;1.90;;;22.50;48.30;;;;;;6271846;28;20514;-76
2022/08/12 05:46:55;;;;;;;5.55;1.92;;;22.90;47.90;;;;;;6271638;28;20049;-76
2022/08/12 05:49:58;;;;;;;5.63;2.10;;;23.90;46.40;;;;;;6271309;28;20041;-76
2022/08/12 05:53:01;;;;;;;3.78;2.03;;;25.80;42.90;;;;;;6271299;28;20041;-76
2022/08/12 05:56:03;;;;;;;6.05;2.03;;;27.80;39.40;;;;;;6271863;28;20515;-76
2022/08/12 05:59:07;;;;;;;4.88;1.73;;;28.80;37.40;;;;;;6270758;28;20037;-76
2022/08/12 06:02:10;;;;;;;10.25;1.67;;;28.80;36.60;;;;;;6271080;28;20053;-76
2022/08/12 06:05:12;;;;;;;10.57;2.70;;;28.10;37.10;;;;;;6271321;28;20166;-76
2022/08/12 06:08:16;;;;;;;2.05;1.05;;;27.70;38.10;;;;;;6271100;28;20454;-76
2022/08/12 06:11:18;;;;;;;3.05;1.00;;;28.10;38.10;;;;;;6270720;28;20098;-75
2022/08/12 06:14:21;;;;;;;1.90;0.98;;;29.00;36.90;;;;;;6270739;28;20052;-76
2022/08/12 06:17:23;;;;;;;3.95;1.25;;;29.60;35.90;;;;;;6270095;28;20146;-76
2022/08/12 06:20:24;;;;;;;8.70;1.48;;;30.10;35.90;;;;;;6270666;28;20048;-75
2022/08/12 06:23:28;;;;;;;1.35;0.98;;;30.10;35.40;;;;;;6262656;28;20504;-75
2022/08/12 06:26:30;;;;;;;4.72;1.25;;;30.00;36.40;;;;;;6253383;28;20543;-75
2022/08/12 06:29:34;;;;;;;4.05;0.88;;;29.50;36.00;;;;;;6245608;28;20061;-75
2022/08/12 06:32:36;;;;;;;5.00;1.00;;;29.40;36.20;;;;;;6245913;28;20078;-75
2022/08/12 06:35:39;;;;;;;1.50;1.10;;;29.50;36.20;;;;;;6246306;28;20053;-75
2022/08/12 06:38:44;;;;;;;2.33;1.15;;;29.40;35.50;;;;;;6245645;28;20097;-75
2022/08/12 06:45:06;;;;;;;1.65;0.90;;;30.30;35.10;;;;;;6246582;28;20038;-76
2022/08/12 06:48:08;;;;;;;2.60;1.10;;;31.10;33.90;;;;;;6189032;28;20490;-77
2022/08/12 06:51:10;;;;;;;10.60;1.77;;;31.70;33.20;;;;;;6243025;28;20049;-76
2022/08/12 06:54:13;;;;;;;2.78;0.90;;;32.20;33.20;;;;;;6271085;28;20496;-76
2022/08/12 06:57:15;;;;;;;4.18;0.65;;;32.90;31.90;;;;;;6268335;28;20049;-77
2022/08/12 07:00:21;;;;;;;5.90;1.20;;;33.50;31.40;;;;;;6246890;28;20090;-77
2022/08/12 07:03:27;;;;;;;4.53;1.00;;;34.30;30.90;;;;;;6247794;28;20529;-76
2022/08/12 07:06:29;;;;;;;2.90;0.73;;;34.80;30.00;;;;;;6253547;28;20144;-79
2022/08/12 07:09:32;;;;;;;2.63;1.08;;;34.40;30.40;;;;;;6257017;28;20045;-80
2022/08/12 07:12:34;;;;;;;20.48;1.70;;;32.90;31.50;;;;;;6256703;28;20497;-79
2022/08/12 07:15:36;;;;;;;1.33;0.80;;;31.40;33.40;;;;;;6256442;28;20049;-78
2022/08/12 07:18:38;;;;;;;2.13;0.73;;;30.40;34.40;;;;;;6253412;28;20154;-79
2022/08/12 07:21:40;;;;;;;7.88;1.20;;;29.50;35.80;;;;;;6255607;28;20044;-78
2022/08/12 07:25:29;;;;;;;3.08;1.05;;;29.00;36.70;;;;;;6246123;28;20493;-80
2022/08/12 07:28:08;;;;;;;3.97;1.02;;;28.70;37.00;;;;;;6254317;28;20057;-79
2022/08/12 07:31:10;;;;;;;1.65;0.82;;;28.30;37.30;;;;;;6256243;28;20053;-79
2022/08/12 07:34:12;;;;;;;3.65;1.00;;;28.20;38.00;;;;;;6258003;28;20046;-80
2022/08/12 07:37:14;;;;;;;2.13;1.13;;;28.10;38.00;;;;;;6258404;28;20121;-78
2022/08/12 07:40:17;;;;;;;2.97;0.98;;;28.00;38.20;;;;;;6259350;28;20077;-79
2022/08/12 07:43:19;;;;;;;2.92;1.10;;;27.90;38.50;;;;;;6257951;28;20053;-78
2022/08/12 07:46:23;;;;;;;3.17;0.90;;;27.90;38.50;;;;;;6258144;28;20054;-78
2022/08/12 07:49:26;;;;;;;4.43;1.38;;;27.70;38.70;;;;;;6257569;28;20390;-79
2022/08/12 07:52:29;;;;;;;2.58;1.10;;;27.70;38.80;;;;;;6255005;28;20050;-78
2022/08/12 07:55:32;;;;;;;1.95;0.98;;;27.70;39.20;;;;;;6259282;28;20064;-79
2022/08/12 07:58:34;;;;;;;4.13;1.33;;;27.90;38.70;;;;;;6258258;28;20057;-79
2022/08/12 08:01:37;;;;;;;4.57;1.30;;;28.00;38.50;;;;;;6258229;28;20512;-78
2022/08/12 08:04:58;;;;;;;15.05;1.73;;;28.30;38.40;;;;;;6259561;28;20053;-79
2022/08/12 08:08:03;;;;;;;11.25;1.30;;;28.70;37.80;;;;;;6259747;28;20053;-79
2022/08/12 08:14:28;;;;;;;2.22;1.02;;;29.50;36.90;;;;;;6259144;28;20424;-78
2022/08/12 08:17:29;;;;;;;7.50;1.08;;;29.40;36.40;;;;;;6258407;28;20045;-79
2022/08/12 08:20:34;;;;;;;9.15;1.52;;;29.20;37.50;;;;;;6259132;28;20052;-79
2022/08/12 08:27:05;;;;;;;2.65;0.85;;;29.30;36.30;;;;;;6213864;28;20057;-79
2022/08/12 08:30:10;;;;;;;3.30;0.88;;;29.30;36.40;;;;;;6258606;28;20064;-78
2022/08/12 08:33:13;;;;;;;3.78;0.90;;;29.50;35.90;;;;;;6257988;28;20060;-79
2022/08/12 08:36:15;;;;;;;2.70;0.95;;;29.60;35.80;;;;;;6258826;28;20117;-79
2022/08/12 08:39:16;;;;;;;2.72;0.80;;;29.50;35.70;;;;;;6257158;28;20053;-78
2022/08/12 08:42:39;;;;;;;4.72;1.05;;;29.40;35.60;;;;;;6257450;28;20055;-79
2022/08/12 08:45:40;;;;;;;5.72;1.10;;;29.30;35.70;;;;;;6258563;28;20057;-79
2022/08/12 08:48:43;;;;;;;2.65;0.63;;;29.60;35.70;;;;;;6258842;28;20052;-77
2022/08/12 08:51:45;;;;;;;9.93;0.90;;;29.90;34.50;;;;;;6264166;28;20053;-77
2022/08/12 08:54:48;;;;;;;4.97;0.93;;;29.90;34.40;;;;;;6258579;28;20056;-79
2022/08/12 08:57:54;;;;;;;0.88;0.60;;;29.80;34.60;;;;;;6248885;28;20584;-78
2022/08/12 09:00:56;;;;;;;1.40;0.70;;;30.00;34.60;;;;;;6255851;28;20052;-78
2022/08/12 09:03:57;;;;;;;7.80;1.00;;;30.10;34.30;;;;;;6255674;28;20056;-78
2022/08/12 09:07:01;;;;;;;3.05;0.90;;;30.10;34.10;;;;;;6237322;28;20051;-79
2022/08/12 09:10:05;;;;;;;4.03;1.13;;;30.20;34.30;;;;;;6256673;28;20041;-77
2022/08/12 09:16:27;;;;;;;6.15;0.90;;;30.30;34.20;;;;;;6257589;28;20054;-78
2022/08/12 09:19:29;;;;;;;3.65;0.55;;;30.60;34.10;;;;;;6257807;28;20420;-77
2022/08/12 09:22:31;;;;;;;3.75;0.80;;;30.80;32.70;;;;;;6257489;28;20061;-78
2022/08/12 09:25:34;;;;;;;4.20;0.98;;;30.60;32.70;;;;;;6246024;28;20053;-79
2022/08/12 09:28:37;;;;;;;4.47;1.02;;;30.40;32.30;;;;;;6247411;28;20115;-78
2022/08/12 09:31:39;;;;;;;4.32;0.90;;;30.40;32.90;;;;;;6247608;28;20508;-76
2022/08/12 09:34:40;;;;;;;1.52;0.60;;;30.60;32.20;;;;;;6247337;28;20080;-77
2022/08/12 09:37:42;;;;;;;2.50;0.73;;;31.90;31.00;;;;;;6246874;28;20420;-77
2022/08/12 09:40:46;;;;;;;2.92;0.70;;;33.40;30.10;;;;;;6246725;28;20076;-77
2022/08/12 09:47:08;;;;;;;5.43;1.10;;;35.70;28.40;;;;;;6246985;28;20049;-77
2022/08/12 09:50:10;;;;;;;3.97;0.43;;;36.20;28.20;;;;;;6246918;28;20042;-77
2022/08/12 09:53:15;;;;;;;3.13;0.70;;;36.20;27.90;;;;;;6246620;28;20044;-76
2022/08/12 09:56:18;;;;;;;2.63;0.40;;;36.00;27.60;;;;;;6247676;28;20052;-77
2022/08/12 09:59:22;;;;;;;0.73;0.40;;;36.10;27.60;;;;;;6246012;28;20044;-77
2022/08/12 10:02:25;;;;;;;3.10;0.73;;;36.50;27.30;;;;;;6246581;28;20532;-77
2022/08/12 10:05:32;;;;;;;2.92;1.10;;;36.70;27.30;;;;;;6246490;28;20061;-77
2022/08/12 10:08:35;;;;;;;1.30;0.70;;;36.00;27.70;;;;;;6246139;28;20050;-76
2022/08/12 10:14:58;;;;;;;2.03;0.55;;;34.80;27.90;;;;;;6246733;28;20049;-78
2022/08/12 10:17:59;;;;;;;0.93;0.40;;;33.60;28.80;;;;;;6246420;28;20052;-76
2022/08/12 10:21:04;;;;;;;2.60;0.90;;;33.30;29.00;;;;;;6246150;28;20504;-77
2022/08/12 10:24:08;;;;;;;2.28;0.68;;;32.80;29.10;;;;;;6246724;28;20416;-76
2022/08/12 10:30:30;;;;;;;5.30;1.50;;;32.10;29.40;;;;;;6245811;28;20053;-76
2022/08/12 10:33:33;;;;;;;8.73;1.10;;;31.90;29.50;;;;;;6246012;28;20056;-76
2022/08/12 10:36:37;;;;;;;2.88;0.55;;;31.80;29.70;;;;;;6246276;28;20046;-77
2022/08/12 10:39:40;;;;;;;3.17;0.40;;;32.20;29.70;;;;;;6246049;28;20204;-77
2022/08/12 10:46:02;;;;;;;2.55;0.80;;;32.80;28.90;;;;;;6245957;28;20108;-77
2022/08/12 10:49:05;;;;;;;6.07;0.93;;;32.90;29.20;;;;;;6245999;28;20047;-78
2022/08/12 10:52:07;;;;;;;1.58;0.88;;;33.00;29.40;;;;;;6246095;28;20045;-77
2022/08/12 10:55:09;;;;;;;2.83;0.80;;;33.40;29.40;;;;;;6246183;28;20061;-77
2022/08/12 10:58:13;;;;;;;5.00;0.93;;;33.70;29.30;;;;;;6245353;28;20045;-77
2022/08/12 11:01:17;;;;;;;2.55;0.52;;;33.90;29.00;;;;;;6245514;28;20049;-78
2022/08/12 11:04:19;;;;;;;7.53;0.75;;;33.60;28.80;;;;;;6246054;28;20056;-78
2022/08/12 11:07:23;;;;;;;4.35;0.65;;;33.30;29.30;;;;;;6249495;28;20052;-77
2022/08/12 11:10:25;;;;;;;0.80;0.63;;;33.50;29.40;;;;;;6251400;28;20071;-79
2022/08/12 11:13:26;;;;;;;1.20;0.55;;;33.70;28.90;;;;;;6243651;28;20046;-76
2022/08/12 11:16:31;;;;;;;1.77;0.70;;;33.60;28.70;;;;;;6226866;28;20050;-77
2022/08/12 11:19:36;;;;;;;0.60;0.47;;;33.60;28.30;;;;;;6228174;28;20057;-77
2022/08/12 11:22:37;;;;;;;2.10;0.52;;;33.80;28.20;;;;;;6227853;28;20525;-77
2022/08/12 11:25:39;;;;;;;1.05;0.50;;;34.10;27.50;;;;;;6229845;28;20077;-76
2022/08/12 11:28:41;;;;;;;4.00;0.80;;;34.00;27.70;;;;;;6242001;28;20045;-77
2022/08/12 11:31:44;;;;;;;2.08;0.70;;;33.90;28.50;;;;;;6251712;28;20424;-77
2022/08/12 11:34:46;;;;;;;3.92;1.10;;;34.20;28.40;;;;;;6254373;28;20416;-77
2022/08/12 11:37:48;;;;;;;2.47;0.60;;;34.50;28.30;;;;;;6254093;28;20045;-77
2022/08/12 11:40:49;;;;;;;2.92;0.73;;;34.70;27.80;;;;;;6254097;28;20056;-77
2022/08/12 11:43:51;;;;;;;1.33;0.60;;;34.90;28.10;;;;;;6255341;28;20049;-78
2022/08/12 11:46:54;;;;;;;5.80;0.77;;;35.00;27.80;;;;;;6249783;28;20041;-77
2022/08/12 11:49:56;;;;;;;0.82;0.57;;;34.70;27.80;;;;;;6249390;28;20067;-77
2022/08/12 11:52:58;;;;;;;3.60;0.88;;;34.50;28.20;;;;;;6249823;28;20042;-76
2022/08/12 11:56:00;;;;;;;2.80;0.75;;;34.90;28.20;;;;;;6250097;28;20054;-77
2022/08/12 11:59:02;;;;;;;3.00;0.85;;;35.30;27.90;;;;;;6250326;28;20053;-77
2022/08/12 12:02:05;;;;;;;5.20;0.57;;;35.80;27.80;;;;;;6250355;28;20045;-77
2022/08/12 12:05:08;;;;;;;2.08;0.60;;;36.00;27.40;;;;;;6250026;28;20179;-77
2022/08/12 12:08:09;;;;;;;7.43;0.55;;;36.30;27.40;;;;;;6250510;28;20065;-77
2022/08/12 12:11:11;;;;;;;2.33;0.80;;;36.70;27.20;;;;;;6250020;28;20420;-77
2022/08/12 12:14:13;;;;;;;2.63;0.40;;;36.80;27.10;;;;;;6243647;28;20057;-77
2022/08/12 12:17:16;;;;;;;4.35;0.60;;;36.60;27.00;;;;;;6237862;28;20050;-77
2022/08/12 12:20:18;;;;;;;2.25;0.73;;;36.90;26.70;;;;;;6249667;28;20049;-77
2022/08/12 12:23:20;;;;;;;1.88;0.60;;;36.60;26.90;;;;;;6248450;28;20060;-77
2022/08/12 12:26:22;;;;;;;3.42;0.57;;;36.60;26.90;;;;;;6264561;28;20496;-77
2022/08/12 12:29:23;;;;;;;2.67;0.90;;;36.60;27.10;;;;;;6273879;28;20048;-77
2022/08/12 12:32:26;;;;;;;1.30;0.45;;;36.60;27.00;;;;;;6298688;28;20045;-77
2022/08/12 12:35:28;;;;;;;4.40;0.50;;;36.90;26.90;;;;;;6298433;28;20045;-77
2022/08/12 12:38:30;;;;;;;1.83;0.60;;;37.00;26.50;;;;;;6297748;28;20041;-76
2022/08/12 12:41:32;;;;;;;2.10;0.65;;;36.50;26.80;;;;;;6275028;28;20049;-76
2022/08/12 12:44:33;;;;;;;0.70;0.50;;;36.30;27.00;;;;;;6273065;28;20049;-76
2022/08/12 12:47:36;;;;;;;2.38;0.47;;;35.70;27.20;;;;;;6272017;28;20080;-76
2022/08/12 12:50:40;;;;;;;4.65;0.70;;;35.30;27.60;;;;;;6248046;28;20523;-77
2022/08/12 12:53:44;;;;;;;1.13;0.47;;;34.90;27.60;;;;;;6248186;28;20051;-76
2022/08/12 12:56:48;;;;;;;3.67;0.30;;;34.50;27.90;;;;;;6280823;28;20056;-76
2022/08/12 13:00:13;;;;;;;1.65;0.63;;;34.60;27.90;;;;;;6285308;28;20049;-77
2022/08/12 13:03:17;;;;;;;1.55;0.60;;;34.90;27.70;;;;;;6297100;28;20040;-76
2022/08/12 13:06:22;;;;;;;0.70;0.43;;;35.00;27.50;;;;;;6297198;28;20436;-76
2022/08/12 13:09:23;;;;;;;1.25;0.55;;;35.10;27.30;;;;;;6276839;28;20099;-77
2022/08/12 13:12:25;;;;;;;4.00;0.57;;;35.20;27.60;;;;;;6248165;28;20045;-77
2022/08/12 13:15:27;;;;;;;5.15;0.40;;;35.60;27.40;;;;;;6248810;28;20049;-77
2022/08/12 13:18:35;;;;;;;0.60;0.30;;;35.60;27.00;;;;;;6272071;28;20045;-76
2022/08/12 13:22:15;;;;;;;4.03;0.52;;;35.50;27.20;;;;;;6271933;28;20052;-77
2022/08/12 13:25:00;;;;;;;4.28;0.73;;;35.30;27.20;;;;;;6272838;28;20431;-77
2022/08/12 13:28:02;;;;;;;3.08;0.80;;;35.00;27.40;;;;;;6280329;28;20045;-77
2022/08/12 13:31:06;;;;;;;1.65;0.50;;;34.70;27.60;;;;;;6269882;28;20397;-78
2022/08/12 13:34:10;;;;;;;1.50;0.55;;;34.60;27.50;;;;;;6274091;28;20496;-77
2022/08/12 13:37:12;;;;;;;2.05;0.35;;;34.30;27.40;;;;;;6272352;28;20049;-78
2022/08/12 13:40:13;;;;;;;0.68;0.40;;;34.20;27.70;;;;;;6272551;28;20056;-77
2022/08/12 13:43:16;;;;;;;1.77;0.65;;;34.00;27.60;;;;;;6271828;28;20045;-77
2022/08/12 13:46:19;;;;;;;3.50;0.70;;;34.10;27.60;;;;;;6271922;28;20041;-77
2022/08/12 13:49:22;;;;;;;2.17;0.55;;;34.20;27.70;;;;;;6272517;28;20045;-78
2022/08/12 13:52:23;;;;;;;3.55;0.65;;;34.50;27.70;;;;;;6273735;28;20460;-77
2022/08/12 13:55:25;;;;;;;1.05;0.40;;;34.70;27.20;;;;;;6272130;28;20049;-77
2022/08/12 13:58:27;;;;;;;1.38;0.70;;;34.80;27.10;;;;;;6279372;28;20501;-77
2022/08/12 14:01:29;;;;;;;1.27;0.63;;;34.60;27.20;;;;;;6292086;28;20397;-76
2022/08/12 14:04:32;;;;;;;0.60;0.40;;;34.40;27.60;;;;;;6296019;28;20068;-77
2022/08/12 14:07:37;;;;;;;2.25;0.47;;;34.40;27.40;;;;;;6296096;28;20063;-77
2022/08/12 14:10:42;;;;;;;2.80;0.60;;;34.00;27.80;;;;;;6296055;28;20040;-78
2022/08/12 14:13:44;;;;;;;2.72;0.50;;;34.20;27.90;;;;;;6285095;28;20422;-78
2022/08/12 14:16:46;;;;;;;1.83;0.40;;;34.40;27.50;;;;;;6273498;28;20519;-78
2022/08/12 14:23:23;;;;;;;5.05;0.65;;;34.70;27.20;;;;;;6146932;29;20417;-77
2022/08/12 14:26:25;;;;;;;3.80;0.60;;;34.50;27.20;;;;;;6146294;29;20051;-77
2022/08/12 14:29:28;;;;;;;4.43;0.63;;;34.40;27.30;;;;;;6266508;28;20072;-77
2022/08/12 14:32:33;;;;;;;5.25;0.40;;;34.30;27.20;;;;;;6271103;28;20045;-77
2022/08/12 14:35:36;;;;;;;1.20;0.30;;;34.70;27.20;;;;;;6246685;28;20057;-77
2022/08/12 14:38:39;;;;;;;0.82;0.43;;;35.00;27.00;;;;;;6263497;28;20049;-77
2022/08/12 14:41:41;;;;;;;0.50;0.40;;;35.00;26.70;;;;;;6270630;28;20167;-77
2022/08/12 14:44:42;;;;;;;2.78;0.50;;;35.00;26.90;;;;;;6270894;28;20184;-77
2022/08/12 14:47:50;;;;;;;0.85;0.40;;;35.10;26.90;;;;;;6272077;28;20091;-77
2022/08/12 14:50:53;;;;;;;0.75;0.30;;;35.30;26.70;;;;;;6272569;28;20124;-77
2022/08/12 14:53:55;;;;;;;3.28;0.60;;;35.30;26.70;;;;;;6270591;28;20053;-77
2022/08/12 14:56:57;;;;;;;4.25;0.63;;;35.50;26.60;;;;;;6271148;28;20052;-77
2022/08/12 15:03:19;;;;;;;4.13;0.35;;;35.80;26.60;;;;;;6270905;28;20041;-77
2022/08/12 15:06:22;;;;;;;1.67;0.40;;;35.40;26.40;;;;;;6270834;28;20115;-77
2022/08/12 15:09:24;;;;;;;6.07;0.50;;;35.00;26.60;;;;;;6270336;28;20060;-77
2022/08/12 15:12:25;;;;;;;1.08;0.47;;;34.70;26.80;;;;;;6271454;28;20052;-77
2022/08/12 15:15:27;;;;;;;0.95;0.22;;;34.40;26.90;;;;;;6271363;28;20045;-78
2022/08/12 15:18:30;;;;;;;4.25;0.73;;;34.60;26.90;;;;;;6270948;28;20052;-77
2022/08/12 15:21:36;;;;;;;5.35;0.90;;;35.10;26.90;;;;;;6271605;28;20057;-77
2022/08/12 15:24:38;;;;;;;0.88;0.43;;;35.20;26.60;;;;;;6270534;28;20057;-77
2022/08/12 15:27:42;;;;;;;2.83;0.30;;;35.00;26.60;;;;;;6276489;28;20040;-76
2022/08/12 15:30:44;;;;;;;2.25;0.50;;;34.50;26.80;;;;;;6276179;28;20115;-77
2022/08/12 15:33:48;;;;;;;1.40;0.30;;;34.10;27.30;;;;;;6263719;28;20049;-77
2022/08/12 15:36:51;;;;;;;1.85;0.50;;;33.50;27.50;;;;;;6269941;28;21715;-77
2022/08/12 15:39:53;;;;;;;2.13;0.50;;;33.40;27.70;;;;;;6270718;28;20055;-77
2022/08/12 15:42:56;;;;;;;1.65;0.50;;;33.50;27.80;;;;;;6269983;28;20045;-77
2022/08/12 15:45:58;;;;;;;1.25;0.68;;;33.70;27.60;;;;;;6269893;28;20518;-76
2022/08/12 15:49:00;;;;;;;4.30;0.47;;;33.70;27.60;;;;;;6269756;28;20052;-77
2022/08/12 15:52:03;;;;;;;1.55;0.65;;;33.90;27.40;;;;;;6272070;28;20056;-77
2022/08/12 15:55:07;;;;;;;0.30;0.25;;;34.00;27.20;;;;;;6274480;28;20048;-76
2022/08/12 15:58:08;;;;;;;6.82;0.38;;;33.80;27.30;;;;;;6282138;28;20041;-76
2022/08/12 16:01:13;;;;;;;4.68;0.38;;;33.60;27.40;;;;;;6292576;28;20041;-76
2022/08/12 16:04:17;;;;;;;2.47;0.43;;;33.40;28.00;;;;;;6299618;28;20191;-77
2022/08/12 16:07:23;;;;;;;1.27;0.35;;;33.10;27.60;;;;;;6298833;28;20054;-77
2022/08/12 16:10:27;;;;;;;0.95;0.50;;;32.70;27.80;;;;;;6299057;28;20060;-76
2022/08/12 16:13:29;;;;;;;3.20;0.70;;;32.30;28.10;;;;;;6298596;28;20070;-77
2022/08/12 16:16:34;;;;;;;2.95;0.47;;;32.10;28.30;;;;;;6298808;28;20059;-77
2022/08/12 16:19:36;;;;;;;2.55;0.43;;;32.00;28.60;;;;;;6279693;28;20060;-78
2022/08/12 16:22:39;;;;;;;5.18;0.40;;;32.10;28.50;;;;;;6273071;28;20381;-77
2022/08/12 16:25:41;;;;;;;0.60;0.52;;;32.00;28.60;;;;;;6273912;28;20060;-77
2022/08/12 16:28:44;;;;;;;0.98;0.32;;;31.80;28.20;;;;;;6282147;28;20044;-77
2022/08/12 16:31:46;;;;;;;1.60;0.50;;;31.70;28.50;;;;;;6287210;28;20573;-77
2022/08/12 16:34:47;;;;;;;3.35;0.68;;;31.60;28.70;;;;;;6251510;28;20050;-77
2022/08/12 16:37:52;;;;;;;3.65;0.63;;;31.50;28.70;;;;;;6248302;28;20420;-77
2022/08/12 16:40:54;;;;;;;1.42;0.52;;;31.40;28.60;;;;;;6248361;28;20042;-76
2022/08/12 16:43:55;;;;;;;0.40;0.28;;;31.10;28.80;;;;;;6258258;28;20499;-76
2022/08/12 16:46:57;;;;;;;3.38;0.50;;;30.90;29.00;;;;;;6273150;28;20420;-76
2022/08/12 16:49:59;;;;;;;0.63;0.30;;;30.80;29.30;;;;;;6272878;28;20424;-76
2022/08/12 16:53:02;;;;;;;1.15;0.50;;;30.80;29.60;;;;;;6272479;28;20074;-77
2022/08/12 16:56:05;;;;;;;0.22;0.20;;;30.70;29.30;;;;;;6270333;28;20076;-77
2022/08/12 16:59:07;;;;;;;0.65;0.30;;;30.60;29.40;;;;;;6282261;28;20049;-77
2022/08/12 17:02:09;;;;;;;0.65;0.40;;;30.50;29.30;;;;;;6287540;28;20408;-77
2022/08/12 17:05:13;;;;;;;2.72;0.40;;;30.50;29.50;;;;;;6271975;28;20127;-77
2022/08/12 17:08:20;;;;;;;1.27;0.43;;;30.40;29.50;;;;;;6275747;28;20060;-77
2022/08/12 17:11:22;;;;;;;0.63;0.40;;;30.40;29.60;;;;;;6277875;28;20041;-78
2022/08/12 17:14:23;;;;;;;0.93;0.30;;;30.30;29.90;;;;;;6285061;28;20554;-79
2022/08/12 17:17:26;;;;;;;1.45;0.35;;;30.30;30.00;;;;;;6283963;28;20045;-79
2022/08/12 17:20:31;;;;;;;1.38;0.50;;;30.10;30.10;;;;;;6283346;28;20721;-79
2022/08/12 17:23:35;;;;;;;1.27;0.50;;;30.00;30.40;;;;;;6285147;28;20497;-78
2022/08/12 17:26:38;;;;;;;3.83;0.57;;;29.90;30.60;;;;;;6283881;28;20049;-79
2022/08/12 17:29:44;;;;;;;1.27;0.40;;;29.80;30.80;;;;;;6297098;28;20507;-79
2022/08/12 17:32:47;;;;;;;7.40;0.82;;;29.70;30.90;;;;;;6297797;28;20099;-79
2022/08/12 17:35:49;;;;;;;0.75;0.32;;;29.70;31.00;;;;;;6276836;28;20140;-79
2022/08/12 17:38:52;;;;;;;0.22;0.22;;;29.60;31.10;;;;;;6282368;28;20052;-79
2022/08/12 17:41:54;;;;;;;1.10;0.43;;;29.50;31.20;;;;;;6283090;28;20516;-79
2022/08/12 17:44:58;;;;;;;5.15;0.55;;;29.50;31.60;;;;;;6280248;28;20037;-77
2022/08/12 17:48:00;;;;;;;2.20;0.85;;;29.40;31.60;;;;;;6271984;28;20085;-77
2022/08/12 17:51:05;;;;;;;1.40;0.35;;;29.30;31.70;;;;;;6271789;28;20406;-77
2022/08/12 17:54:09;;;;;;;1.98;0.70;;;29.30;32.00;;;;;;6271711;28;20524;-77
2022/08/12 17:57:11;;;;;;;0.82;0.30;;;29.30;32.10;;;;;;6273442;28;20067;-77
2022/08/12 18:00:16;;;;;;;1.80;0.57;;;29.30;32.10;;;;;;6288673;28;20063;-77